sensor_id;sensor_type;location;lat;lon;timestamp;temperature;humidity
20977;DHT22;10647;51.016;3.720;2022-09-29T00:01:03;11.50;99.90
20977;DHT22;10647;51.016;3.720;2022-09-29T00:03:32;11.50;99.90
20977;DHT22;10647;51.016;3.720;2022-09-29T00:05:59;11.40;99.90
20977;DHT22;10647;51.016;3.720;2022-09-29T00:08:29;11.30;99.90
20977;DHT22;10647;51.016;3.720;2022-09-29T00:10:57;11.30;99.90
20977;DHT22;10647;51.016;3.720;2022-09-29T00:13:24;11.20;99.90
20977;DHT22;10647;51.016;3.720;2022-09-29T00:15:59;11.10;99.90
20977;DHT22;10647;51.016;3.720;2022-09-29T00:18:28;11.10;99.90
20977;DHT22;10647;51.016;3.720;2022-09-29T00:23:48;11.00;99.90
20977;DHT22;10647;51.016;3.720;2022-09-29T00:26:18;11.00;99.90
20977;DHT22;10647;51.016;3.720;2022-09-29T00:28:54;11.00;99.90
20977;DHT22;10647;51.016;3.720;2022-09-29T00:31:27;11.00;99.90
20977;DHT22;10647;51.016;3.720;2022-09-29T00:33:57;11.00;99.90
20977;DHT22;10647;51.016;3.720;2022-09-29T00:36:25;11.00;99.90
20977;DHT22;10647;51.016;3.720;2022-09-29T00:38:57;11.00;99.90
20977;DHT22;10647;51.016;3.720;2022-09-29T00:41:30;11.00;99.90
20977;DHT22;10647;51.016;3.720;2022-09-29T00:44:01;11.00;99.90
20977;DHT22;10647;51.016;3.720;2022-09-29T00:49:32;11.10;99.90
20977;DHT22;10647;51.016;3.720;2022-09-29T00:52:03;11.00;99.90
20977;DHT22;10647;51.016;3.720;2022-09-29T00:54:33;11.00;99.90
20977;DHT22;10647;51.016;3.720;2022-09-29T00:57:02;11.00;99.90
20977;DHT22;10647;51.016;3.720;2022-09-29T00:59:49;11.00;99.90
20977;DHT22;10647;51.016;3.720;2022-09-29T01:02:15;11.00;99.90
20977;DHT22;10647;51.016;3.720;2022-09-29T01:04:44;11.00;99.90
20977;DHT22;10647;51.016;3.720;2022-09-29T01:07:14;11.00;99.90
20977;DHT22;10647;51.016;3.720;2022-09-29T01:09:42;11.10;99.90
20977;DHT22;10647;51.016;3.720;2022-09-29T01:12:10;11.10;99.90
20977;DHT22;10647;51.016;3.720;2022-09-29T01:14:37;11.10;99.90
20977;DHT22;10647;51.016;3.720;2022-09-29T01:17:06;11.10;99.90
20977;DHT22;10647;51.016;3.720;2022-09-29T01:19:51;11.10;99.90
20977;DHT22;10647;51.016;3.720;2022-09-29T01:28:20;11.10;99.90
20977;DHT22;10647;51.016;3.720;2022-09-29T01:31:01;11.10;99.90
20977;DHT22;10647;51.016;3.720;2022-09-29T01:33:36;11.10;99.90
20977;DHT22;10647;51.016;3.720;2022-09-29T01:36:23;11.10;99.90
20977;DHT22;10647;51.016;3.720;2022-09-29T01:39:13;11.10;99.90
20977;DHT22;10647;51.016;3.720;2022-09-29T01:41:49;11.10;99.90
20977;DHT22;10647;51.016;3.720;2022-09-29T01:44:24;11.10;99.90
20977;DHT22;10647;51.016;3.720;2022-09-29T01:46:56;11.10;99.90
20977;DHT22;10647;51.016;3.720;2022-09-29T01:49:26;11.10;99.90
20977;DHT22;10647;51.016;3.720;2022-09-29T01:52:07;11.10;99.90
20977;DHT22;10647;51.016;3.720;2022-09-29T01:54:33;11.10;99.90
20977;DHT22;10647;51.016;3.720;2022-09-29T01:59:50;11.10;99.90
20977;DHT22;10647;51.016;3.720;2022-09-29T02:02:20;11.10;99.90
20977;DHT22;10647;51.016;3.720;2022-09-29T02:04:53;11.10;99.90
20977;DHT22;10647;51.016;3.720;2022-09-29T02:07:29;11.10;99.90
20977;DHT22;10647;51.016;3.720;2022-09-29T02:09:56;11.10;99.90
20977;DHT22;10647;51.016;3.720;2022-09-29T02:12:29;11.10;99.90
20977;DHT22;10647;51.016;3.720;2022-09-29T02:14:59;11.10;99.90
20977;DHT22;10647;51.016;3.720;2022-09-29T02:17:33;11.10;99.90
20977;DHT22;10647;51.016;3.720;2022-09-29T02:20:02;11.10;99.90
20977;DHT22;10647;51.016;3.720;2022-09-29T02:22:30;11.10;99.90
20977;DHT22;10647;51.016;3.720;2022-09-29T02:24:59;11.10;99.90
20977;DHT22;10647;51.016;3.720;2022-09-29T02:27:28;11.00;99.90
20977;DHT22;10647;51.016;3.720;2022-09-29T02:30:01;11.00;99.90
20977;DHT22;10647;51.016;3.720;2022-09-29T02:32:29;10.90;99.90
20977;DHT22;10647;51.016;3.720;2022-09-29T02:34:57;10.90;99.90
20977;DHT22;10647;51.016;3.720;2022-09-29T02:46:28;10.90;99.90
20977;DHT22;10647;51.016;3.720;2022-09-29T02:49:01;10.90;99.90
20977;DHT22;10647;51.016;3.720;2022-09-29T03:00:02;10.80;99.90
20977;DHT22;10647;51.016;3.720;2022-09-29T03:05:08;10.60;99.90
20977;DHT22;10647;51.016;3.720;2022-09-29T03:07:37;10.60;99.90
20977;DHT22;10647;51.016;3.720;2022-09-29T03:10:06;10.50;99.90
20977;DHT22;10647;51.016;3.720;2022-09-29T03:15:22;10.40;99.90
20977;DHT22;10647;51.016;3.720;2022-09-29T03:17:50;10.30;99.90
20977;DHT22;10647;51.016;3.720;2022-09-29T03:20:19;10.30;99.90
20977;DHT22;10647;51.016;3.720;2022-09-29T03:22:46;10.30;99.90
20977;DHT22;10647;51.016;3.720;2022-09-29T03:25:14;10.30;99.90
20977;DHT22;10647;51.016;3.720;2022-09-29T03:27:42;10.20;99.90
20977;DHT22;10647;51.016;3.720;2022-09-29T03:30:11;10.20;99.90
20977;DHT22;10647;51.016;3.720;2022-09-29T03:32:39;10.20;99.90
20977;DHT22;10647;51.016;3.720;2022-09-29T03:35:07;10.10;99.90
20977;DHT22;10647;51.016;3.720;2022-09-29T03:37:35;10.10;99.90
20977;DHT22;10647;51.016;3.720;2022-09-29T03:40:04;10.10;99.90
20977;DHT22;10647;51.016;3.720;2022-09-29T03:42:31;10.10;99.90
20977;DHT22;10647;51.016;3.720;2022-09-29T03:44:59;10.10;99.90
20977;DHT22;10647;51.016;3.720;2022-09-29T03:47:26;10.20;99.90
20977;DHT22;10647;51.016;3.720;2022-09-29T03:49:54;10.30;99.90
20977;DHT22;10647;51.016;3.720;2022-09-29T03:52:21;10.40;99.90
20977;DHT22;10647;51.016;3.720;2022-09-29T03:54:50;10.40;99.90
20977;DHT22;10647;51.016;3.720;2022-09-29T03:57:17;10.50;99.90
20977;DHT22;10647;51.016;3.720;2022-09-29T03:59:45;10.60;99.90
20977;DHT22;10647;51.016;3.720;2022-09-29T04:02:13;10.60;99.90
20977;DHT22;10647;51.016;3.720;2022-09-29T04:04:42;10.70;99.90
20977;DHT22;10647;51.016;3.720;2022-09-29T04:07:09;10.70;99.90
20977;DHT22;10647;51.016;3.720;2022-09-29T04:09:37;10.80;99.90
20977;DHT22;10647;51.016;3.720;2022-09-29T04:12:04;10.80;99.90
20977;DHT22;10647;51.016;3.720;2022-09-29T04:14:33;10.80;99.90
20977;DHT22;10647;51.016;3.720;2022-09-29T04:17:00;10.80;99.90
20977;DHT22;10647;51.016;3.720;2022-09-29T04:19:28;10.90;99.90
20977;DHT22;10647;51.016;3.720;2022-09-29T04:21:56;10.90;99.90
20977;DHT22;10647;51.016;3.720;2022-09-29T04:24:25;10.90;99.90
20977;DHT22;10647;51.016;3.720;2022-09-29T04:26:52;10.90;99.90
20977;DHT22;10647;51.016;3.720;2022-09-29T04:29:20;10.90;99.90
20977;DHT22;10647;51.016;3.720;2022-09-29T04:31:47;10.80;99.90
20977;DHT22;10647;51.016;3.720;2022-09-29T04:34:15;10.80;99.90
20977;DHT22;10647;51.016;3.720;2022-09-29T04:36:42;10.80;99.90
20977;DHT22;10647;51.016;3.720;2022-09-29T04:39:10;10.80;99.90
20977;DHT22;10647;51.016;3.720;2022-09-29T04:41:38;10.80;99.90
20977;DHT22;10647;51.016;3.720;2022-09-29T04:44:06;10.80;99.90
20977;DHT22;10647;51.016;3.720;2022-09-29T04:46:34;10.80;99.90
20977;DHT22;10647;51.016;3.720;2022-09-29T04:49:02;10.80;99.90
20977;DHT22;10647;51.016;3.720;2022-09-29T04:51:30;10.80;99.90
20977;DHT22;10647;51.016;3.720;2022-09-29T04:53:58;10.80;99.90
20977;DHT22;10647;51.016;3.720;2022-09-29T04:56:25;10.80;99.90
20977;DHT22;10647;51.016;3.720;2022-09-29T04:58:55;10.80;99.90
20977;DHT22;10647;51.016;3.720;2022-09-29T05:01:22;10.70;99.90
20977;DHT22;10647;51.016;3.720;2022-09-29T05:03:50;10.70;99.90
20977;DHT22;10647;51.016;3.720;2022-09-29T05:06:17;10.70;99.90
20977;DHT22;10647;51.016;3.720;2022-09-29T05:08:45;10.70;99.90
20977;DHT22;10647;51.016;3.720;2022-09-29T05:11:12;10.70;99.90
20977;DHT22;10647;51.016;3.720;2022-09-29T05:13:40;10.70;99.90
20977;DHT22;10647;51.016;3.720;2022-09-29T05:16:07;10.70;99.90
20977;DHT22;10647;51.016;3.720;2022-09-29T05:18:35;10.70;99.90
20977;DHT22;10647;51.016;3.720;2022-09-29T05:21:07;10.70;99.90
20977;DHT22;10647;51.016;3.720;2022-09-29T05:23:35;10.70;99.90
20977;DHT22;10647;51.016;3.720;2022-09-29T05:26:05;10.70;99.90
20977;DHT22;10647;51.016;3.720;2022-09-29T05:28:34;10.70;99.90
20977;DHT22;10647;51.016;3.720;2022-09-29T05:31:06;10.70;99.90
20977;DHT22;10647;51.016;3.720;2022-09-29T05:33:40;10.60;99.90
20977;DHT22;10647;51.016;3.720;2022-09-29T05:36:09;10.60;99.90
20977;DHT22;10647;51.016;3.720;2022-09-29T05:38:41;10.60;99.90
20977;DHT22;10647;51.016;3.720;2022-09-29T05:41:12;10.50;99.90
20977;DHT22;10647;51.016;3.720;2022-09-29T05:43:44;10.50;99.90
20977;DHT22;10647;51.016;3.720;2022-09-29T05:46:18;10.50;99.90
20977;DHT22;10647;51.016;3.720;2022-09-29T05:48:46;10.50;99.90
20977;DHT22;10647;51.016;3.720;2022-09-29T05:51:17;10.40;99.90
20977;DHT22;10647;51.016;3.720;2022-09-29T05:53:47;10.40;99.90
20977;DHT22;10647;51.016;3.720;2022-09-29T05:56:17;10.40;99.90
20977;DHT22;10647;51.016;3.720;2022-09-29T05:58:45;10.50;99.90
20977;DHT22;10647;51.016;3.720;2022-09-29T06:01:16;10.50;99.90
20977;DHT22;10647;51.016;3.720;2022-09-29T06:03:44;10.50;99.90
20977;DHT22;10647;51.016;3.720;2022-09-29T06:06:14;10.60;99.90
20977;DHT22;10647;51.016;3.720;2022-09-29T06:08:42;10.60;99.90
20977;DHT22;10647;51.016;3.720;2022-09-29T06:11:12;10.70;99.90
20977;DHT22;10647;51.016;3.720;2022-09-29T06:13:45;10.70;99.90
20977;DHT22;10647;51.016;3.720;2022-09-29T06:16:17;10.70;99.90
20977;DHT22;10647;51.016;3.720;2022-09-29T06:19:04;10.80;99.90
20977;DHT22;10647;51.016;3.720;2022-09-29T06:21:35;10.80;99.90
20977;DHT22;10647;51.016;3.720;2022-09-29T06:24:06;10.90;99.90
20977;DHT22;10647;51.016;3.720;2022-09-29T06:26:35;11.00;99.90
20977;DHT22;10647;51.016;3.720;2022-09-29T06:29:03;11.00;99.90
20977;DHT22;10647;51.016;3.720;2022-09-29T06:31:32;11.00;99.90
20977;DHT22;10647;51.016;3.720;2022-09-29T06:34:08;11.10;99.90
20977;DHT22;10647;51.016;3.720;2022-09-29T06:36:43;11.20;99.90
20977;DHT22;10647;51.016;3.720;2022-09-29T06:39:39;11.30;99.90
20977;DHT22;10647;51.016;3.720;2022-09-29T06:42:06;11.30;99.90
20977;DHT22;10647;51.016;3.720;2022-09-29T06:44:35;11.30;99.90
20977;DHT22;10647;51.016;3.720;2022-09-29T06:47:05;11.40;99.90
20977;DHT22;10647;51.016;3.720;2022-09-29T06:49:39;11.50;99.90
20977;DHT22;10647;51.016;3.720;2022-09-29T06:52:09;11.50;99.90
20977;DHT22;10647;51.016;3.720;2022-09-29T06:54:37;11.50;99.90
20977;DHT22;10647;51.016;3.720;2022-09-29T06:57:12;11.60;99.90
20977;DHT22;10647;51.016;3.720;2022-09-29T06:59:42;11.60;99.90
20977;DHT22;10647;51.016;3.720;2022-09-29T07:02:10;11.60;99.90
20977;DHT22;10647;51.016;3.720;2022-09-29T07:04:44;11.70;99.90
20977;DHT22;10647;51.016;3.720;2022-09-29T07:07:19;11.70;99.90
20977;DHT22;10647;51.016;3.720;2022-09-29T07:09:55;11.70;99.90
20977;DHT22;10647;51.016;3.720;2022-09-29T07:12:23;11.70;99.90
20977;DHT22;10647;51.016;3.720;2022-09-29T07:14:58;11.80;99.90
20977;DHT22;10647;51.016;3.720;2022-09-29T07:17:35;11.70;99.90
20977;DHT22;10647;51.016;3.720;2022-09-29T07:20:03;11.80;99.90
20977;DHT22;10647;51.016;3.720;2022-09-29T07:22:36;11.80;99.90
20977;DHT22;10647;51.016;3.720;2022-09-29T07:25:04;11.90;99.90
20977;DHT22;10647;51.016;3.720;2022-09-29T07:27:31;11.90;99.90
20977;DHT22;10647;51.016;3.720;2022-09-29T07:30:20;11.90;99.90
20977;DHT22;10647;51.016;3.720;2022-09-29T07:32:53;12.00;99.90
20977;DHT22;10647;51.016;3.720;2022-09-29T07:35:27;12.00;99.90
20977;DHT22;10647;51.016;3.720;2022-09-29T07:38:00;12.10;99.90
20977;DHT22;10647;51.016;3.720;2022-09-29T07:40:29;12.10;99.90
20977;DHT22;10647;51.016;3.720;2022-09-29T07:42:59;12.20;99.90
20977;DHT22;10647;51.016;3.720;2022-09-29T07:48:10;12.30;99.90
20977;DHT22;10647;51.016;3.720;2022-09-29T07:51:09;12.30;99.90
20977;DHT22;10647;51.016;3.720;2022-09-29T07:53:34;12.40;99.90
20977;DHT22;10647;51.016;3.720;2022-09-29T07:56:07;12.50;99.90
20977;DHT22;10647;51.016;3.720;2022-09-29T07:58:35;12.50;99.90
20977;DHT22;10647;51.016;3.720;2022-09-29T08:01:05;12.50;99.90
20977;DHT22;10647;51.016;3.720;2022-09-29T08:03:43;12.60;99.90
20977;DHT22;10647;51.016;3.720;2022-09-29T08:06:18;12.60;99.90
20977;DHT22;10647;51.016;3.720;2022-09-29T08:08:46;12.80;99.90
20977;DHT22;10647;51.016;3.720;2022-09-29T08:11:16;12.80;99.90
20977;DHT22;10647;51.016;3.720;2022-09-29T08:13:49;12.90;99.90
20977;DHT22;10647;51.016;3.720;2022-09-29T08:16:17;13.00;99.90
20977;DHT22;10647;51.016;3.720;2022-09-29T08:18:50;13.10;99.90
20977;DHT22;10647;51.016;3.720;2022-09-29T08:21:37;13.10;99.90
20977;DHT22;10647;51.016;3.720;2022-09-29T08:24:26;13.20;99.90
20977;DHT22;10647;51.016;3.720;2022-09-29T08:26:55;13.40;99.90
20977;DHT22;10647;51.016;3.720;2022-09-29T08:29:23;13.60;99.90
20977;DHT22;10647;51.016;3.720;2022-09-29T08:31:56;13.70;99.90
20977;DHT22;10647;51.016;3.720;2022-09-29T08:34:33;13.70;99.90
20977;DHT22;10647;51.016;3.720;2022-09-29T08:37:03;13.90;99.90
20977;DHT22;10647;51.016;3.720;2022-09-29T08:39:34;13.80;99.90
20977;DHT22;10647;51.016;3.720;2022-09-29T08:42:55;13.90;99.90
20977;DHT22;10647;51.016;3.720;2022-09-29T08:44:47;14.00;99.90
20977;DHT22;10647;51.016;3.720;2022-09-29T08:47:33;14.10;99.90
20977;DHT22;10647;51.016;3.720;2022-09-29T08:50:09;14.10;99.90
20977;DHT22;10647;51.016;3.720;2022-09-29T08:52:55;14.20;99.90
20977;DHT22;10647;51.016;3.720;2022-09-29T08:55:46;14.30;99.90
20977;DHT22;10647;51.016;3.720;2022-09-29T08:58:15;14.40;99.90
20977;DHT22;10647;51.016;3.720;2022-09-29T09:01:09;14.50;99.90
20977;DHT22;10647;51.016;3.720;2022-09-29T09:06:42;14.60;99.90
20977;DHT22;10647;51.016;3.720;2022-09-29T09:12:30;14.70;99.90
20977;DHT22;10647;51.016;3.720;2022-09-29T09:26:47;15.10;99.90
20977;DHT22;10647;51.016;3.720;2022-09-29T09:29:31;15.20;99.90
20977;DHT22;10647;51.016;3.720;2022-09-29T09:32:05;15.30;99.90
20977;DHT22;10647;51.016;3.720;2022-09-29T09:34:35;15.40;99.90
20977;DHT22;10647;51.016;3.720;2022-09-29T09:37:31;15.40;99.90
20977;DHT22;10647;51.016;3.720;2022-09-29T09:40:20;15.50;99.90
20977;DHT22;10647;51.016;3.720;2022-09-29T09:43:03;15.60;99.90
20977;DHT22;10647;51.016;3.720;2022-09-29T09:51:53;15.80;99.90
20977;DHT22;10647;51.016;3.720;2022-09-29T09:53:55;15.90;99.90
20977;DHT22;10647;51.016;3.720;2022-09-29T09:59:30;16.00;99.90
20977;DHT22;10647;51.016;3.720;2022-09-29T10:01:57;16.20;99.90
20977;DHT22;10647;51.016;3.720;2022-09-29T10:04:25;16.40;99.90
20977;DHT22;10647;51.016;3.720;2022-09-29T10:06:53;16.60;99.90
20977;DHT22;10647;51.016;3.720;2022-09-29T10:09:21;16.80;99.90
20977;DHT22;10647;51.016;3.720;2022-09-29T10:11:49;16.90;99.90
20977;DHT22;10647;51.016;3.720;2022-09-29T10:14:25;17.00;99.90
20977;DHT22;10647;51.016;3.720;2022-09-29T10:17:00;17.10;99.90
20977;DHT22;10647;51.016;3.720;2022-09-29T10:22:13;17.20;99.90
20977;DHT22;10647;51.016;3.720;2022-09-29T10:24:41;17.30;99.90
20977;DHT22;10647;51.016;3.720;2022-09-29T10:27:08;17.60;99.90
20977;DHT22;10647;51.016;3.720;2022-09-29T10:29:45;17.90;99.90
20977;DHT22;10647;51.016;3.720;2022-09-29T10:34:50;18.40;99.90
20977;DHT22;10647;51.016;3.720;2022-09-29T10:37:34;18.50;99.90
20977;DHT22;10647;51.016;3.720;2022-09-29T10:42:41;18.70;99.90
20977;DHT22;10647;51.016;3.720;2022-09-29T10:45:13;19.00;99.90
20977;DHT22;10647;51.016;3.720;2022-09-29T10:53:05;19.90;99.90
20977;DHT22;10647;51.016;3.720;2022-09-29T10:55:34;20.00;99.90
20977;DHT22;10647;51.016;3.720;2022-09-29T10:58:27;20.00;99.90
20977;DHT22;10647;51.016;3.720;2022-09-29T11:01:06;19.80;99.90
20977;DHT22;10647;51.016;3.720;2022-09-29T11:06:42;19.30;99.90
20977;DHT22;10647;51.016;3.720;2022-09-29T11:17:59;20.30;99.90
20977;DHT22;10647;51.016;3.720;2022-09-29T11:20:03;21.00;99.90
20977;DHT22;10647;51.016;3.720;2022-09-29T11:37:16;19.70;99.90
20977;DHT22;10647;51.016;3.720;2022-09-29T11:51:38;17.80;99.90
20977;DHT22;10647;51.016;3.720;2022-09-29T11:57:14;17.60;99.90
20977;DHT22;10647;51.016;3.720;2022-09-29T12:00:07;17.60;99.90
20977;DHT22;10647;51.016;3.720;2022-09-29T12:03:00;17.60;99.90
20977;DHT22;10647;51.016;3.720;2022-09-29T12:11:38;17.30;99.90
20977;DHT22;10647;51.016;3.720;2022-09-29T12:14:35;17.20;99.90
20977;DHT22;10647;51.016;3.720;2022-09-29T12:17:07;17.10;99.90
20977;DHT22;10647;51.016;3.720;2022-09-29T12:19:36;17.20;99.90
20977;DHT22;10647;51.016;3.720;2022-09-29T12:22:07;17.30;99.90
20977;DHT22;10647;51.016;3.720;2022-09-29T12:24:55;17.40;99.90
20977;DHT22;10647;51.016;3.720;2022-09-29T12:27:39;17.50;99.90
20977;DHT22;10647;51.016;3.720;2022-09-29T12:30:29;17.80;99.90
20977;DHT22;10647;51.016;3.720;2022-09-29T12:33:26;17.90;99.90
20977;DHT22;10647;51.016;3.720;2022-09-29T12:40:02;18.20;99.90
20977;DHT22;10647;51.016;3.720;2022-09-29T12:41:55;18.30;99.90
20977;DHT22;10647;51.016;3.720;2022-09-29T12:44:39;18.20;99.90
20977;DHT22;10647;51.016;3.720;2022-09-29T12:53:11;18.60;99.90
20977;DHT22;10647;51.016;3.720;2022-09-29T12:55:58;18.90;99.90
20977;DHT22;10647;51.016;3.720;2022-09-29T12:58:32;19.20;99.90
20977;DHT22;10647;51.016;3.720;2022-09-29T13:01:08;19.70;99.90
20977;DHT22;10647;51.016;3.720;2022-09-29T13:03:43;20.10;99.90
20977;DHT22;10647;51.016;3.720;2022-09-29T13:15:23;27.20;99.90
20977;DHT22;10647;51.016;3.720;2022-09-29T13:18:31;29.30;99.90
20977;DHT22;10647;51.016;3.720;2022-09-29T13:24:19;33.00;99.90
20977;DHT22;10647;51.016;3.720;2022-09-29T13:30:32;34.40;99.90
20977;DHT22;10647;51.016;3.720;2022-09-29T13:32:24;35.40;99.90
20977;DHT22;10647;51.016;3.720;2022-09-29T13:34:58;36.50;99.90
20977;DHT22;10647;51.016;3.720;2022-09-29T13:37:34;36.90;99.90
20977;DHT22;10647;51.016;3.720;2022-09-29T13:39:59;37.50;99.90
20977;DHT22;10647;51.016;3.720;2022-09-29T13:42:44;37.50;99.90
20977;DHT22;10647;51.016;3.720;2022-09-29T13:48:02;35.90;99.90
20977;DHT22;10647;51.016;3.720;2022-09-29T13:50:46;34.00;99.90
20977;DHT22;10647;51.016;3.720;2022-09-29T13:58:34;28.40;99.90
20977;DHT22;10647;51.016;3.720;2022-09-29T14:01:07;27.10;99.90
20977;DHT22;10647;51.016;3.720;2022-09-29T14:03:38;25.90;99.90
20977;DHT22;10647;51.016;3.720;2022-09-29T14:06:20;24.60;99.90
20977;DHT22;10647;51.016;3.720;2022-09-29T14:09:12;23.40;99.90
20977;DHT22;10647;51.016;3.720;2022-09-29T14:11:51;22.40;99.90
20977;DHT22;10647;51.016;3.720;2022-09-29T14:14:30;21.20;99.90
20977;DHT22;10647;51.016;3.720;2022-09-29T14:17:09;20.20;99.90
20977;DHT22;10647;51.016;3.720;2022-09-29T14:20:15;19.30;99.90
20977;DHT22;10647;51.016;3.720;2022-09-29T14:23:06;18.50;99.90
20977;DHT22;10647;51.016;3.720;2022-09-29T14:30:59;17.60;99.90
20977;DHT22;10647;51.016;3.720;2022-09-29T14:33:41;17.50;99.90
20977;DHT22;10647;51.016;3.720;2022-09-29T14:36:23;17.60;99.90
20977;DHT22;10647;51.016;3.720;2022-09-29T14:38:57;17.70;99.90
20977;DHT22;10647;51.016;3.720;2022-09-29T14:41:29;17.60;99.90
20977;DHT22;10647;51.016;3.720;2022-09-29T14:44:28;17.50;99.90
20977;DHT22;10647;51.016;3.720;2022-09-29T14:50:29;17.40;99.90
20977;DHT22;10647;51.016;3.720;2022-09-29T14:56:21;17.20;99.90
20977;DHT22;10647;51.016;3.720;2022-09-29T14:59:00;17.10;99.90
20977;DHT22;10647;51.016;3.720;2022-09-29T15:01:32;17.10;99.90
20977;DHT22;10647;51.016;3.720;2022-09-29T15:04:11;17.00;99.90
20977;DHT22;10647;51.016;3.720;2022-09-29T15:06:48;16.90;99.90
20977;DHT22;10647;51.016;3.720;2022-09-29T15:09:19;16.90;99.90
20977;DHT22;10647;51.016;3.720;2022-09-29T15:11:52;16.90;99.90
20977;DHT22;10647;51.016;3.720;2022-09-29T15:22:58;16.90;99.90
20977;DHT22;10647;51.016;3.720;2022-09-29T15:25:33;16.90;99.90
20977;DHT22;10647;51.016;3.720;2022-09-29T15:28:09;16.90;99.90
20977;DHT22;10647;51.016;3.720;2022-09-29T15:30:34;16.90;99.90
20977;DHT22;10647;51.016;3.720;2022-09-29T15:33:08;16.90;99.90
20977;DHT22;10647;51.016;3.720;2022-09-29T15:35:57;16.90;99.90
20977;DHT22;10647;51.016;3.720;2022-09-29T15:43:59;17.20;99.90
20977;DHT22;10647;51.016;3.720;2022-09-29T15:46:36;17.40;99.90
20977;DHT22;10647;51.016;3.720;2022-09-29T15:49:23;17.50;99.90
20977;DHT22;10647;51.016;3.720;2022-09-29T15:51:55;17.70;99.90
20977;DHT22;10647;51.016;3.720;2022-09-29T15:54:38;17.80;99.90
20977;DHT22;10647;51.016;3.720;2022-09-29T15:57:29;17.90;99.90
20977;DHT22;10647;51.016;3.720;2022-09-29T16:03:13;18.00;99.90
20977;DHT22;10647;51.016;3.720;2022-09-29T16:08:34;18.00;99.90
20977;DHT22;10647;51.016;3.720;2022-09-29T16:11:05;17.90;99.90
20977;DHT22;10647;51.016;3.720;2022-09-29T16:13:37;17.90;99.90
20977;DHT22;10647;51.016;3.720;2022-09-29T16:16:10;18.10;99.90
20977;DHT22;10647;51.016;3.720;2022-09-29T16:18:43;18.20;99.90
20977;DHT22;10647;51.016;3.720;2022-09-29T16:21:16;18.30;99.90
20977;DHT22;10647;51.016;3.720;2022-09-29T16:31:46;18.60;99.90
20977;DHT22;10647;51.016;3.720;2022-09-29T16:34:25;18.50;99.90
20977;DHT22;10647;51.016;3.720;2022-09-29T16:37:02;18.50;99.90
20977;DHT22;10647;51.016;3.720;2022-09-29T16:39:38;18.40;99.90
20977;DHT22;10647;51.016;3.720;2022-09-29T16:42:03;18.30;99.90
20977;DHT22;10647;51.016;3.720;2022-09-29T16:44:34;18.20;99.90
20977;DHT22;10647;51.016;3.720;2022-09-29T16:49:52;17.80;99.90
20977;DHT22;10647;51.016;3.720;2022-09-29T16:52:23;17.80;99.90
20977;DHT22;10647;51.016;3.720;2022-09-29T16:54:54;17.70;99.90
20977;DHT22;10647;51.016;3.720;2022-09-29T16:57:25;17.60;99.90
20977;DHT22;10647;51.016;3.720;2022-09-29T17:00:00;17.40;99.90
20977;DHT22;10647;51.016;3.720;2022-09-29T17:02:29;17.30;99.90
20977;DHT22;10647;51.016;3.720;2022-09-29T17:04:57;17.20;99.90
20977;DHT22;10647;51.016;3.720;2022-09-29T17:07:27;17.00;99.90
20977;DHT22;10647;51.016;3.720;2022-09-29T17:09:57;16.80;99.90
20977;DHT22;10647;51.016;3.720;2022-09-29T17:12:44;16.70;99.90
20977;DHT22;10647;51.016;3.720;2022-09-29T17:15:14;16.50;99.90
20977;DHT22;10647;51.016;3.720;2022-09-29T17:17:47;16.30;99.90
20977;DHT22;10647;51.016;3.720;2022-09-29T17:20:18;16.10;99.90
20977;DHT22;10647;51.016;3.720;2022-09-29T17:22:45;16.00;99.90
20977;DHT22;10647;51.016;3.720;2022-09-29T17:25:14;15.90;99.90
20977;DHT22;10647;51.016;3.720;2022-09-29T17:27:43;15.70;99.90
20977;DHT22;10647;51.016;3.720;2022-09-29T17:30:29;15.60;99.90
20977;DHT22;10647;51.016;3.720;2022-09-29T17:32:57;15.50;99.90
20977;DHT22;10647;51.016;3.720;2022-09-29T17:35:31;15.40;99.90
20977;DHT22;10647;51.016;3.720;2022-09-29T17:38:00;15.30;99.90
20977;DHT22;10647;51.016;3.720;2022-09-29T17:40:42;15.20;99.90
20977;DHT22;10647;51.016;3.720;2022-09-29T17:43:08;15.10;99.90
20977;DHT22;10647;51.016;3.720;2022-09-29T17:45:35;15.00;99.90
20977;DHT22;10647;51.016;3.720;2022-09-29T17:48:04;14.90;99.90
20977;DHT22;10647;51.016;3.720;2022-09-29T17:50:49;14.80;99.90
20977;DHT22;10647;51.016;3.720;2022-09-29T17:53:19;14.80;99.90
20977;DHT22;10647;51.016;3.720;2022-09-29T17:55:48;14.70;99.90
20977;DHT22;10647;51.016;3.720;2022-09-29T17:58:17;14.60;99.90
20977;DHT22;10647;51.016;3.720;2022-09-29T18:00:47;14.50;99.90
20977;DHT22;10647;51.016;3.720;2022-09-29T18:03:17;14.50;99.90
20977;DHT22;10647;51.016;3.720;2022-09-29T18:05:47;14.40;99.90
20977;DHT22;10647;51.016;3.720;2022-09-29T18:08:17;14.40;99.90
20977;DHT22;10647;51.016;3.720;2022-09-29T18:10:52;14.30;99.90
20977;DHT22;10647;51.016;3.720;2022-09-29T18:13:39;14.30;99.90
20977;DHT22;10647;51.016;3.720;2022-09-29T18:16:12;14.20;99.90
20977;DHT22;10647;51.016;3.720;2022-09-29T18:18:40;14.10;99.90
20977;DHT22;10647;51.016;3.720;2022-09-29T18:21:08;14.10;99.90
20977;DHT22;10647;51.016;3.720;2022-09-29T18:23:37;14.00;99.90
20977;DHT22;10647;51.016;3.720;2022-09-29T18:26:05;14.00;99.90
20977;DHT22;10647;51.016;3.720;2022-09-29T18:28:33;14.00;99.90
20977;DHT22;10647;51.016;3.720;2022-09-29T18:31:06;13.90;99.90
20977;DHT22;10647;51.016;3.720;2022-09-29T18:33:34;13.80;99.90
20977;DHT22;10647;51.016;3.720;2022-09-29T18:36:20;13.90;99.90
20977;DHT22;10647;51.016;3.720;2022-09-29T18:38:48;13.80;99.90
20977;DHT22;10647;51.016;3.720;2022-09-29T18:41:18;13.80;99.90
20977;DHT22;10647;51.016;3.720;2022-09-29T18:43:47;13.70;99.90
20977;DHT22;10647;51.016;3.720;2022-09-29T18:46:16;13.70;99.90
20977;DHT22;10647;51.016;3.720;2022-09-29T18:48:44;13.60;99.90
20977;DHT22;10647;51.016;3.720;2022-09-29T18:51:11;13.60;99.90
20977;DHT22;10647;51.016;3.720;2022-09-29T18:53:39;13.50;99.90
20977;DHT22;10647;51.016;3.720;2022-09-29T18:56:10;13.50;99.90
20977;DHT22;10647;51.016;3.720;2022-09-29T18:58:38;13.50;99.90
20977;DHT22;10647;51.016;3.720;2022-09-29T19:01:07;13.40;99.90
20977;DHT22;10647;51.016;3.720;2022-09-29T19:03:34;13.40;99.90
20977;DHT22;10647;51.016;3.720;2022-09-29T19:06:02;13.30;99.90
20977;DHT22;10647;51.016;3.720;2022-09-29T19:08:29;13.30;99.90
20977;DHT22;10647;51.016;3.720;2022-09-29T19:10:58;13.20;99.90
20977;DHT22;10647;51.016;3.720;2022-09-29T19:13:27;13.20;99.90
20977;DHT22;10647;51.016;3.720;2022-09-29T19:15:57;13.20;99.90
20977;DHT22;10647;51.016;3.720;2022-09-29T19:18:26;13.10;99.90
20977;DHT22;10647;51.016;3.720;2022-09-29T19:20:56;13.10;99.90
20977;DHT22;10647;51.016;3.720;2022-09-29T19:23:26;13.10;99.90
20977;DHT22;10647;51.016;3.720;2022-09-29T19:25:54;13.00;99.90
20977;DHT22;10647;51.016;3.720;2022-09-29T19:28:23;13.00;99.90